Time;durP1;ratioP1;P1;durP2;ratioP2;P2;SDS_P1;SDS_P2;PMS_P1;PMS_P2;Temp;Humidity;BMP_temperature;BMP_pressure;BME280_temperature;BME280_humidity;BME280_pressure;Samples;Min_cycle;Max_cycle;Signal;HPM_P1;HPM_P2
2023/06/05 00:00:30;;;;;;;5.68;3.95;;;;;;;19.65;60.33;100661.41;5067295;28;20357;-67
2023/06/05 00:02:55;;;;;;;5.97;4.20;;;;;;;19.65;60.43;100664.13;5065765;28;20039;-68
2023/06/05 00:05:21;;;;;;;7.95;3.67;;;;;;;19.58;60.85;100657.72;5066213;28;20142;-68
2023/06/05 00:07:46;;;;;;;7.32;4.40;;;;;;;19.64;60.95;100667.84;5067603;28;20020;-68
2023/06/05 00:10:13;;;;;;;7.22;4.43;;;;;;;19.61;61.63;100668.22;5067524;28;20035;-68
2023/06/05 00:12:39;;;;;;;5.55;4.20;;;;;;;19.52;61.35;100647.59;5067262;28;20040;-68
2023/06/05 00:15:06;;;;;;;9.70;4.47;;;;;;;19.58;61.33;100665.88;5067182;28;20017;-68
2023/06/05 00:17:31;;;;;;;8.70;4.65;;;;;;;19.58;61.41;100665.88;5070631;28;20536;-67
2023/06/05 00:20:00;;;;;;;8.57;4.78;;;;;;;19.58;61.45;100665.03;5064769;28;20020;-68
2023/06/05 00:22:31;;;;;;;5.93;4.20;;;;;;;19.63;61.71;100685.22;5069715;28;20051;-67
2023/06/05 00:24:56;;;;;;;7.25;4.47;;;;;;;19.61;61.98;100679.09;5078993;28;20077;-67
2023/06/05 00:27:22;;;;;;;11.23;3.97;;;;;;;19.61;61.74;100681.00;5071327;28;20024;-68
2023/06/05 00:29:48;;;;;;;6.38;3.63;;;;;;;19.60;61.74;100682.00;5069557;28;20031;-68
2023/06/05 00:32:13;;;;;;;8.00;4.18;;;;;;;19.57;62.10;100680.50;5071339;28;20037;-68
2023/06/05 00:34:39;;;;;;;4.90;3.38;;;;;;;19.54;62.63;100666.44;5071464;28;20067;-68
2023/06/05 00:37:04;;;;;;;10.45;4.00;;;;;;;19.51;62.43;100654.03;5070791;28;20078;-67
2023/06/05 00:39:30;;;;;;;6.30;4.13;;;;;;;19.55;63.09;100662.69;5070939;28;20471;-68
2023/06/05 00:41:55;;;;;;;6.47;3.85;;;;;;;19.50;63.23;100652.34;5069323;28;20012;-68
2023/06/05 00:44:21;;;;;;;6.03;4.30;;;;;;;19.55;63.33;100660.81;5070956;28;20028;-68
2023/06/05 00:46:49;;;;;;;6.95;4.05;;;;;;;19.56;63.23;100664.38;5088876;28;20024;-68
2023/06/05 00:49:15;;;;;;;4.45;3.60;;;;;;;19.53;63.44;100657.44;5086379;28;20094;-77
2023/06/05 00:51:42;;;;;;;6.35;4.40;;;;;;;19.56;63.56;100661.66;5089424;28;20081;-77
2023/06/05 00:54:08;;;;;;;7.70;3.85;;;;;;;19.55;63.84;100666.25;5080232;28;20031;-77
2023/06/05 00:56:35;;;;;;;8.18;3.97;;;;;;;19.57;63.92;100664.19;5078817;28;20023;-76
2023/06/05 00:59:01;;;;;;;4.40;3.65;;;;;;;19.58;63.85;100659.59;5078849;28;20035;-76
2023/06/05 01:01:28;;;;;;;7.13;3.75;;;;;;;19.59;64.16;100662.13;5077171;28;20471;-77
2023/06/05 01:03:57;;;;;;;9.40;4.10;;;;;;;19.53;64.36;100649.25;5089241;28;20038;-76
2023/06/05 01:06:28;;;;;;;6.88;3.95;;;;;;;19.55;64.52;100649.94;5086173;28;20028;-75
2023/06/05 01:08:56;;;;;;;6.28;3.75;;;;;;;19.53;65.25;100649.25;5077501;28;20028;-76
2023/06/05 01:11:31;;;;;;;5.93;3.13;;;;;;;19.59;65.49;100655.84;5077463;28;20135;-76
2023/06/05 01:14:27;;;;;;;5.90;3.33;;;;;;;19.61;66.24;100656.50;5085555;28;20020;-77
2023/06/05 01:16:53;;;;;;;7.63;3.78;;;;;;;19.61;66.63;100651.91;5077805;28;20044;-76
2023/06/05 01:19:20;;;;;;;5.15;3.45;;;;;;;19.50;66.53;100633.31;5084600;28;20498;-77
2023/06/05 01:21:49;;;;;;;7.60;3.63;;;;;;;19.64;66.06;100653.44;5083109;28;20521;-77
2023/06/05 01:24:15;;;;;;;5.50;3.95;;;;;;;19.64;66.21;100654.25;5084332;28;20064;-77
2023/06/05 01:27:07;;;;;;;4.82;3.67;;;;;;;19.65;66.54;100655.97;5086213;28;20035;-78
2023/06/05 01:29:53;;;;;;;6.13;3.65;;;;;;;19.61;66.97;100649.19;5077617;28;20479;-77
2023/06/05 01:32:44;;;;;;;8.65;3.95;;;;;;;19.65;67.41;100655.97;5071504;28;20033;-76
2023/06/05 01:35:16;;;;;;;8.90;3.90;;;;;;;19.64;67.34;100658.88;5069734;28;20041;-77
2023/06/05 01:37:46;;;;;;;6.68;3.72;;;;;;;19.62;67.67;100656.34;5078778;28;20040;-77
2023/06/05 01:40:15;;;;;;;8.38;4.20;;;;;;;19.63;68.08;100658.00;5080768;28;20052;-77
2023/06/05 01:42:42;;;;;;;7.35;4.05;;;;;;;19.62;68.08;100664.50;5075528;28;20225;-77
2023/06/05 01:45:09;;;;;;;7.55;4.25;;;;;;;19.42;68.51;100627.09;5099402;28;20275;-75
2023/06/05 01:47:39;;;;;;;5.00;4.15;;;;;;;19.61;68.57;100660.06;5099410;28;20100;-77
2023/06/05 01:50:06;;;;;;;9.35;3.95;;;;;;;19.54;68.75;100642.78;5097192;28;20054;-77
2023/06/05 01:52:34;;;;;;;5.72;3.70;;;;;;;19.59;68.96;100655.84;5103955;28;20009;-77
2023/06/05 01:55:01;;;;;;;6.57;4.38;;;;;;;19.57;69.30;100653.31;5098151;28;20038;-76
2023/06/05 01:57:28;;;;;;;6.75;4.53;;;;;;;19.53;69.73;100659.28;5100814;28;20466;-67
2023/06/05 01:59:54;;;;;;;7.70;3.47;;;;;;;19.52;69.88;100650.31;5073148;28;20077;-68
2023/06/05 02:02:21;;;;;;;6.53;3.50;;;;;;;19.52;70.47;100653.03;5067915;28;20419;-67
2023/06/05 02:04:47;;;;;;;5.72;3.80;;;;;;;19.43;70.53;100639.66;5071928;28;20033;-67
2023/06/05 02:07:14;;;;;;;9.48;4.00;;;;;;;19.35;70.72;100637.84;5073141;28;20475;-67
2023/06/05 02:09:41;;;;;;;4.70;3.15;;;;;;;19.44;71.18;100647.63;5077330;28;20036;-67
2023/06/05 02:12:07;;;;;;;6.97;3.92;;;;;;;19.44;71.52;100652.25;5084864;28;20024;-68
2023/06/05 02:14:35;;;;;;;7.50;3.90;;;;;;;19.28;72.24;100626.00;5084770;28;20085;-67
2023/06/05 02:17:04;;;;;;;8.35;3.83;;;;;;;19.33;72.56;100639.94;5070541;28;20020;-67
2023/06/05 02:19:30;;;;;;;6.45;3.88;;;;;;;19.40;73.02;100650.91;5070611;28;20040;-68
2023/06/05 02:21:56;;;;;;;4.53;3.83;;;;;;;19.38;73.20;100647.53;5069014;28;20029;-67
2023/06/05 02:24:22;;;;;;;8.32;4.10;;;;;;;19.31;73.28;100641.97;5069050;28;20047;-67
2023/06/05 02:26:48;;;;;;;5.55;3.83;;;;;;;19.23;73.29;100627.56;5067857;28;20028;-68
2023/06/05 02:29:13;;;;;;;5.15;3.90;;;;;;;19.32;73.29;100648.28;5075783;28;20039;-68
2023/06/05 02:31:39;;;;;;;6.50;3.67;;;;;;;19.31;73.65;100647.41;5072865;28;20036;-67
2023/06/05 02:34:05;;;;;;;6.43;4.28;;;;;;;19.17;73.82;100634.59;5080828;28;20055;-67
2023/06/05 02:36:32;;;;;;;7.25;4.07;;;;;;;19.21;74.14;100641.34;5075175;28;20028;-68
2023/06/05 02:38:59;;;;;;;6.75;3.88;;;;;;;19.27;73.51;100647.97;5073188;28;20046;-69
2023/06/05 02:41:26;;;;;;;8.88;3.90;;;;;;;19.17;73.60;100644.59;5069753;28;20341;-67
2023/06/05 02:43:53;;;;;;;8.05;3.50;;;;;;;19.25;74.22;100658.97;5069473;28;20422;-67
2023/06/05 02:46:19;;;;;;;5.20;3.47;;;;;;;19.19;74.43;100639.84;5069251;28;20383;-68
2023/06/05 02:48:44;;;;;;;6.40;3.88;;;;;;;19.21;74.34;100644.06;5069907;28;20028;-67
2023/06/05 02:51:10;;;;;;;7.53;4.00;;;;;;;19.24;74.19;100651.88;5073145;28;20045;-68
2023/06/05 02:53:36;;;;;;;7.03;4.50;;;;;;;19.22;74.67;100642.19;5064780;28;20531;-68
2023/06/05 02:56:03;;;;;;;5.15;3.38;;;;;;;19.20;74.43;100645.09;5066714;28;20044;-68
2023/06/05 02:58:28;;;;;;;6.90;4.07;;;;;;;19.19;74.56;100643.38;5068349;28;20036;-69
2023/06/05 03:00:55;;;;;;;7.93;3.42;;;;;;;19.08;74.88;100621.22;5069634;28;20147;-68
2023/06/05 03:03:25;;;;;;;11.27;3.70;;;;;;;19.15;74.77;100633.91;5061581;28;20032;-67
2023/06/05 03:05:53;;;;;;;9.15;3.70;;;;;;;19.16;74.87;100637.50;5069038;28;20127;-67
2023/06/05 03:08:18;;;;;;;4.55;3.42;;;;;;;19.03;74.98;100621.78;5068100;28;20029;-68
2023/06/05 03:10:44;;;;;;;5.88;3.55;;;;;;;19.06;75.23;100620.56;5069870;28;20083;-66
2023/06/05 03:13:09;;;;;;;6.18;3.63;;;;;;;19.00;75.45;100622.16;5069063;28;20111;-69
2023/06/05 03:15:35;;;;;;;6.93;3.40;;;;;;;18.99;75.55;100625.06;5068566;28;20020;-68
2023/06/05 03:18:00;;;;;;;4.88;3.90;;;;;;;19.12;75.99;100652.47;5081262;28;20036;-68
2023/06/05 03:20:26;;;;;;;5.65;3.47;;;;;;;19.01;76.16;100640.16;5074022;28;20069;-68
2023/06/05 03:22:51;;;;;;;8.57;4.28;;;;;;;19.04;76.74;100650.66;5070319;28;20276;-67
2023/06/05 03:25:17;;;;;;;10.15;4.63;;;;;;;19.06;77.05;100656.75;5071594;28;20130;-68
2023/06/05 03:27:43;;;;;;;6.30;4.13;;;;;;;18.99;76.70;100647.63;5075115;28;20040;-68
2023/06/05 03:30:11;;;;;;;8.45;3.97;;;;;;;19.06;77.17;100666.78;5087645;28;20247;-67
2023/06/05 03:32:37;;;;;;;10.15;4.43;;;;;;;18.98;77.24;100666.84;5074538;28;20158;-68
2023/06/05 03:35:02;;;;;;;6.55;4.00;;;;;;;19.04;77.62;100677.84;5068002;28;20503;-68
2023/06/05 03:37:28;;;;;;;7.93;4.07;;;;;;;19.01;78.19;100669.19;5089537;28;20039;-67
2023/06/05 03:39:53;;;;;;;7.63;4.03;;;;;;;19.00;78.02;100675.66;5083068;28;20020;-68
2023/06/05 03:42:19;;;;;;;6.63;5.00;;;;;;;18.89;78.33;100655.16;5069622;28;20017;-72
2023/06/05 03:44:44;;;;;;;6.05;4.18;;;;;;;18.97;78.18;100668.72;5082991;28;20032;-73
2023/06/05 03:47:10;;;;;;;9.77;4.53;;;;;;;18.98;78.17;100667.69;5080088;28;20024;-73
2023/06/05 03:49:36;;;;;;;7.50;4.70;;;;;;;19.00;78.41;100662.06;5073322;28;20028;-73
2023/06/05 03:52:02;;;;;;;6.10;4.10;;;;;;;18.99;78.58;100660.41;5068259;28;20039;-71
2023/06/05 03:54:28;;;;;;;7.40;4.38;;;;;;;19.04;78.27;100661.53;5068431;28;20032;-72
2023/06/05 03:56:58;;;;;;;8.63;4.28;;;;;;;18.99;77.39;100654.97;5066211;28;20031;-72
2023/06/05 03:59:25;;;;;;;9.32;4.20;;;;;;;19.05;77.69;100663.22;5074156;28;20024;-71
2023/06/05 04:01:50;;;;;;;8.50;4.80;;;;;;;19.04;78.18;100664.25;5075222;28;20051;-72
2023/06/05 04:04:16;;;;;;;10.00;4.57;;;;;;;19.02;79.15;100668.19;5082457;28;20023;-70
2023/06/05 04:06:41;;;;;;;8.15;4.32;;;;;;;19.02;78.74;100669.00;5070363;28;20039;-71
2023/06/05 04:09:13;;;;;;;9.27;4.43;;;;;;;19.03;78.40;100668.00;5081208;28;20385;-71
2023/06/05 04:11:41;;;;;;;9.63;4.50;;;;;;;19.04;78.49;100664.25;5065522;28;20590;-71
2023/06/05 04:14:07;;;;;;;8.07;4.57;;;;;;;19.05;78.64;100670.53;5071079;28;20024;-71
2023/06/05 04:16:34;;;;;;;6.47;4.57;;;;;;;19.05;78.18;100673.25;5064524;28;20032;-70
2023/06/05 04:19:00;;;;;;;9.90;4.63;;;;;;;19.06;78.23;100670.34;5066842;28;20036;-70
2023/06/05 04:21:26;;;;;;;7.82;4.90;;;;;;;19.06;78.18;100667.63;5065951;28;20127;-71
2023/06/05 04:23:52;;;;;;;10.40;4.47;;;;;;;19.11;77.79;100661.66;5066529;28;20115;-71
2023/06/05 04:26:18;;;;;;;5.65;4.60;;;;;;;19.12;77.62;100661.47;5065984;28;20074;-71
2023/06/05 04:28:45;;;;;;;7.63;4.85;;;;;;;19.08;77.33;100641.09;5066699;28;20157;-71
2023/06/05 04:31:10;;;;;;;6.97;5.50;;;;;;;19.18;77.56;100651.72;5067059;28;20035;-71
2023/06/05 04:33:36;;;;;;;9.63;5.53;;;;;;;19.24;77.35;100653.72;5083120;28;20024;-71
2023/06/05 04:36:02;;;;;;;11.13;4.63;;;;;;;19.27;77.17;100662.41;5067010;28;20253;-71
2023/06/05 04:38:27;;;;;;;5.60;4.50;;;;;;;19.32;77.10;100659.16;5065547;28;20130;-71
2023/06/05 04:40:53;;;;;;;6.65;4.30;;;;;;;19.37;77.55;100664.88;5065375;28;20025;-71
2023/06/05 04:43:18;;;;;;;9.35;4.47;;;;;;;19.44;77.47;100668.56;5064043;28;20599;-70
2023/06/05 04:45:45;;;;;;;6.18;3.78;;;;;;;19.50;77.03;100660.50;5065905;28;20391;-70
2023/06/05 04:48:11;;;;;;;6.35;3.83;;;;;;;19.53;76.63;100660.16;5066844;28;20024;-69
2023/06/05 04:50:37;;;;;;;6.50;3.92;;;;;;;19.61;76.34;100662.78;5064067;28;20032;-70
2023/06/05 04:53:03;;;;;;;6.15;3.58;;;;;;;19.67;76.22;100664.78;5066651;28;20482;-71
2023/06/05 04:55:28;;;;;;;5.03;3.72;;;;;;;19.74;76.16;100668.44;5066846;28;20028;-70
2023/06/05 04:57:54;;;;;;;7.18;3.65;;;;;;;19.79;75.77;100668.75;5066860;28;20037;-70
2023/06/05 05:00:19;;;;;;;7.93;3.50;;;;;;;19.85;75.47;100665.28;5066971;28;20228;-69
2023/06/05 05:02:45;;;;;;;5.47;3.72;;;;;;;19.92;75.50;100658.06;5065236;28;20020;-69
2023/06/05 05:05:13;;;;;;;5.10;3.70;;;;;;;19.98;75.22;100661.91;5071801;28;20035;-69
2023/06/05 05:07:40;;;;;;;8.85;3.80;;;;;;;20.02;74.93;100658.63;5087910;28;20036;-69
2023/06/05 05:10:08;;;;;;;4.07;3.50;;;;;;;19.99;74.88;100648.09;5086889;28;20052;-69
2023/06/05 05:12:33;;;;;;;7.55;3.85;;;;;;;20.03;74.72;100649.41;5069165;28;20110;-67
2023/06/05 05:14:59;;;;;;;4.68;3.08;;;;;;;20.08;74.83;100663.34;5067548;28;20127;-68
2023/06/05 05:17:25;;;;;;;6.30;3.22;;;;;;;20.06;74.86;100653.66;5068500;28;20035;-68
2023/06/05 05:19:51;;;;;;;7.30;3.50;;;;;;;20.13;74.89;100660.91;5087149;28;20028;-68
2023/06/05 05:22:17;;;;;;;4.70;2.80;;;;;;;20.17;74.78;100667.69;5080746;28;20040;-68
2023/06/05 05:24:42;;;;;;;5.05;3.42;;;;;;;20.11;74.39;100656.66;5067964;28;20071;-68
2023/06/05 05:27:08;;;;;;;5.40;3.28;;;;;;;20.18;74.09;100658.47;5066570;28;20860;-68
2023/06/05 05:29:33;;;;;;;6.05;3.58;;;;;;;20.17;73.48;100655.94;5089595;28;20354;-68
2023/06/05 05:31:59;;;;;;;5.30;3.20;;;;;;;20.26;73.37;100673.88;5071557;28;20036;-68
2023/06/05 05:34:24;;;;;;;6.15;3.50;;;;;;;20.18;73.18;100647.59;5070134;28;20097;-69
2023/06/05 05:36:50;;;;;;;5.68;3.50;;;;;;;20.33;73.63;100663.06;5069833;28;20059;-68
2023/06/05 05:39:17;;;;;;;3.28;2.97;;;;;;;20.37;73.42;100662.50;5070099;28;20029;-69
2023/06/05 05:41:43;;;;;;;5.53;3.40;;;;;;;20.35;74.06;100658.28;5080736;28;20463;-68
2023/06/05 05:44:08;;;;;;;5.25;3.90;;;;;;;20.47;74.32;100670.41;5072414;28;20061;-68
2023/06/05 05:46:33;;;;;;;7.03;3.38;;;;;;;20.55;74.07;100654.78;5069976;28;20163;-69
2023/06/05 05:48:59;;;;;;;5.68;3.42;;;;;;;20.65;73.30;100657.19;5069655;28;20117;-68
2023/06/05 05:51:24;;;;;;;4.25;3.22;;;;;;;20.73;72.53;100660.66;5068817;28;20081;-69
2023/06/05 05:53:50;;;;;;;10.63;4.15;;;;;;;20.84;71.75;100664.78;5069510;28;20029;-69
2023/06/05 05:56:16;;;;;;;5.95;3.75;;;;;;;20.87;71.29;100659.78;5068380;28;20029;-68
2023/06/05 05:58:42;;;;;;;6.93;3.30;;;;;;;20.92;70.96;100659.22;5069948;28;20491;-68
2023/06/05 06:01:08;;;;;;;3.85;3.35;;;;;;;20.93;71.02;100650.00;5067772;28;20068;-69
2023/06/05 06:03:36;;;;;;;5.80;3.50;;;;;;;20.89;71.26;100635.88;5076554;28;20061;-68
2023/06/05 06:06:04;;;;;;;7.18;3.13;;;;;;;20.92;70.79;100640.94;5089801;28;20118;-68
2023/06/05 06:08:30;;;;;;;9.07;3.20;;;;;;;20.98;70.83;100644.81;5068279;28;20029;-68
2023/06/05 06:10:55;;;;;;;8.38;3.30;;;;;;;20.97;70.87;100641.25;5068937;28;20024;-79
2023/06/05 06:13:21;;;;;;;3.63;3.10;;;;;;;21.01;70.87;100645.28;5082734;28;20020;-79
2023/06/05 06:15:46;;;;;;;6.68;2.90;;;;;;;20.98;70.62;100639.34;5074795;28;20032;-79
2023/06/05 06:18:12;;;;;;;3.78;3.42;;;;;;;21.08;70.67;100646.19;5071524;28;20028;-78
2023/06/05 06:20:38;;;;;;;4.80;3.67;;;;;;;20.98;70.44;100623.84;5076249;28;20047;-79
2023/06/05 06:23:03;;;;;;;9.10;3.58;;;;;;;21.14;70.12;100645.41;5080379;28;20514;-79
2023/06/05 06:25:31;;;;;;;4.22;3.03;;;;;;;21.17;69.69;100644.19;5078701;28;20491;-78
2023/06/05 06:27:57;;;;;;;6.82;3.28;;;;;;;21.12;70.01;100630.28;5079703;28;20024;-79
2023/06/05 06:30:22;;;;;;;5.95;3.55;;;;;;;21.25;70.05;100646.78;5085693;28;20426;-78
2023/06/05 06:32:48;;;;;;;5.63;3.42;;;;;;;21.28;69.78;100649.13;5079319;28;20024;-79
2023/06/05 06:35:13;;;;;;;7.30;3.75;;;;;;;21.27;69.71;100644.69;5078171;28;20020;-78
2023/06/05 06:37:40;;;;;;;5.55;3.25;;;;;;;21.31;68.87;100652.28;5075293;28;20063;-79
2023/06/05 06:40:10;;;;;;;5.75;3.60;;;;;;;21.40;68.65;100658.47;5079240;28;20039;-79
2023/06/05 06:42:36;;;;;;;4.07;3.50;;;;;;;21.47;68.16;100662.13;5077363;28;20411;-80
2023/06/05 06:45:03;;;;;;;4.22;3.60;;;;;;;21.51;68.05;100653.31;5078514;28;20036;-79
2023/06/05 06:47:29;;;;;;;6.35;3.75;;;;;;;21.54;68.02;100655.66;5083719;28;20189;-79
2023/06/05 06:49:54;;;;;;;5.40;3.60;;;;;;;21.58;68.26;100650.66;5077047;28;20047;-79
2023/06/05 06:52:20;;;;;;;5.32;3.72;;;;;;;21.68;68.50;100673.84;5083000;28;20471;-79
2023/06/05 06:54:46;;;;;;;8.10;4.20;;;;;;;21.71;68.13;100664.41;5071577;28;20035;-79
2023/06/05 06:57:12;;;;;;;7.85;3.47;;;;;;;21.70;68.27;100640.88;5070498;28;20161;-79
2023/06/05 06:59:40;;;;;;;7.85;4.13;;;;;;;21.78;68.13;100654.41;5079150;28;20025;-80
2023/06/05 07:02:11;;;;;;;7.28;3.88;;;;;;;21.88;67.90;100668.56;5082794;28;20529;-79
2023/06/05 07:04:38;;;;;;;6.70;3.95;;;;;;;21.87;68.37;100656.81;5076935;28;20082;-80
2023/06/05 07:07:04;;;;;;;7.40;3.78;;;;;;;21.96;68.25;100657.50;5071962;28;20033;-79
2023/06/05 07:09:29;;;;;;;7.35;3.97;;;;;;;21.90;67.58;100636.44;5082037;28;20035;-79
2023/06/05 07:11:55;;;;;;;10.07;4.15;;;;;;;22.05;67.09;100645.34;5075600;28;20043;-79
2023/06/05 07:14:21;;;;;;;7.47;3.40;;;;;;;22.18;67.38;100651.75;5069251;28;20024;-79
2023/06/05 07:16:48;;;;;;;4.78;3.85;;;;;;;22.30;67.54;100655.63;5075608;28;20028;-79
2023/06/05 07:19:15;;;;;;;6.45;3.70;;;;;;;22.37;66.85;100655.63;5076547;28;20020;-79
2023/06/05 07:21:40;;;;;;;5.22;3.45;;;;;;;22.38;66.04;100645.56;5069085;28;20028;-80
2023/06/05 07:24:06;;;;;;;9.15;3.30;;;;;;;22.47;65.33;100650.63;5082922;28;20038;-79
2023/06/05 07:26:32;;;;;;;8.43;3.28;;;;;;;22.59;65.05;100659.13;5075260;28;20038;-79
2023/06/05 07:28:57;;;;;;;5.47;3.33;;;;;;;22.66;64.21;100647.19;5084293;28;20466;-79
2023/06/05 07:31:23;;;;;;;3.35;2.80;;;;;;;22.70;63.96;100655.81;5088574;28;20016;-79
2023/06/05 07:33:52;;;;;;;6.93;3.58;;;;;;;22.81;63.26;100649.75;5091259;28;20024;-79
2023/06/05 07:36:18;;;;;;;4.90;3.47;;;;;;;22.81;62.55;100650.59;5078026;28;20075;-79
2023/06/05 07:38:44;;;;;;;6.57;3.63;;;;;;;22.81;62.07;100653.34;5078828;28;20669;-79
2023/06/05 07:41:10;;;;;;;9.82;4.35;;;;;;;22.72;61.79;100643.63;5085362;28;20059;-78
2023/06/05 07:43:40;;;;;;;6.68;3.38;;;;;;;22.84;62.39;100658.41;5080085;28;20463;-79
2023/06/05 07:46:06;;;;;;;3.83;3.20;;;;;;;22.89;61.86;100661.34;5071085;28;20032;-78
2023/06/05 07:48:31;;;;;;;7.68;3.17;;;;;;;22.99;61.32;100664.53;5073779;28;20025;-79
2023/06/05 07:50:57;;;;;;;4.40;3.33;;;;;;;23.09;61.31;100673.22;5084123;28;20477;-78
2023/06/05 07:53:22;;;;;;;6.05;3.10;;;;;;;23.15;61.21;100669.63;5072316;28;20047;-79
2023/06/05 07:55:48;;;;;;;6.18;3.50;;;;;;;23.20;61.17;100658.06;5072921;28;20471;-78
2023/06/05 07:58:15;;;;;;;7.20;3.72;;;;;;;23.25;59.95;100664.63;5071708;28;20155;-78
2023/06/05 08:00:43;;;;;;;3.65;2.67;;;;;;;23.36;59.21;100668.66;5072241;28;21911;-79
2023/06/05 08:03:08;;;;;;;5.85;3.00;;;;;;;23.42;58.48;100665.09;5083979;28;20020;-78
2023/06/05 08:05:35;;;;;;;4.45;2.70;;;;;;;23.49;58.18;100657.72;5069143;28;20032;-79
2023/06/05 08:08:02;;;;;;;4.28;3.05;;;;;;;23.58;58.28;100659.19;5078395;28;20084;-79
2023/06/05 08:10:27;;;;;;;4.55;2.80;;;;;;;23.72;57.91;100658.97;5081361;28;20582;-78
2023/06/05 08:12:53;;;;;;;3.70;2.75;;;;;;;23.82;57.21;100661.28;5074966;28;20031;-78
2023/06/05 08:15:18;;;;;;;8.40;3.03;;;;;;;23.95;56.25;100653.09;5085931;28;20107;-79
2023/06/05 08:17:44;;;;;;;6.53;3.28;;;;;;;24.06;55.21;100646.97;5077638;28;20028;-78
2023/06/05 08:20:10;;;;;;;7.60;3.08;;;;;;;24.11;54.52;100655.38;5087634;28;20016;-78
2023/06/05 08:22:39;;;;;;;3.10;2.80;;;;;;;24.11;54.20;100634.31;5083006;28;20077;-78
2023/06/05 08:25:06;;;;;;;3.95;3.05;;;;;;;24.17;53.66;100633.44;5079057;28;20066;-78
2023/06/05 08:27:32;;;;;;;3.03;2.72;;;;;;;24.26;53.54;100645.03;5075550;28;20365;-78
2023/06/05 08:29:59;;;;;;;3.70;3.13;;;;;;;24.31;53.15;100640.56;5078395;28;20085;-78
2023/06/05 08:32:25;;;;;;;3.08;2.67;;;;;;;24.31;53.02;100629.59;5078264;28;20455;-78
2023/06/05 08:34:50;;;;;;;5.93;3.15;;;;;;;24.43;53.06;100643.47;5081010;28;20104;-78
2023/06/05 08:37:16;;;;;;;3.47;2.83;;;;;;;24.48;53.00;100644.50;5085290;28;20475;-78
2023/06/05 08:39:41;;;;;;;6.20;2.80;;;;;;;24.56;52.52;100632.47;5074707;28;20024;-78
2023/06/05 08:42:07;;;;;;;4.68;3.13;;;;;;;24.66;52.55;100632.03;5071251;28;20465;-78
2023/06/05 08:44:33;;;;;;;6.22;2.92;;;;;;;24.77;52.53;100623.13;5094385;28;20391;-78
2023/06/05 08:47:03;;;;;;;6.15;3.42;;;;;;;24.77;51.83;100623.13;5090966;28;20086;-78
2023/06/05 08:49:29;;;;;;;6.13;3.28;;;;;;;24.82;51.05;100623.31;5077254;28;20032;-78
2023/06/05 08:52:01;;;;;;;5.68;3.10;;;;;;;24.88;50.87;100633.38;5074113;28;20040;-69
2023/06/05 08:54:27;;;;;;;3.47;2.60;;;;;;;24.83;49.49;100619.50;5079821;28;20028;-70
2023/06/05 08:56:53;;;;;;;4.82;2.60;;;;;;;24.87;47.80;100609.75;5071953;28;20032;-70
2023/06/05 08:59:20;;;;;;;4.82;2.80;;;;;;;24.93;46.93;100622.59;5079978;28;20508;-69
2023/06/05 09:01:49;;;;;;;3.75;2.95;;;;;;;25.00;47.27;100624.25;5085013;28;20052;-70
2023/06/05 09:04:14;;;;;;;4.10;2.70;;;;;;;25.02;47.08;100604.81;5091901;28;20115;-70
2023/06/05 09:06:45;;;;;;;3.80;2.80;;;;;;;25.17;46.95;100619.06;5086659;28;20135;-70
2023/06/05 09:09:11;;;;;;;3.42;2.90;;;;;;;25.18;45.77;100615.28;5083606;28;20031;-69
2023/06/05 09:11:38;;;;;;;6.85;2.95;;;;;;;25.36;46.08;100618.97;5091914;28;20123;-70
2023/06/05 09:14:03;;;;;;;3.80;2.85;;;;;;;25.32;46.74;100598.50;5081095;28;20355;-69
2023/06/05 09:16:39;;;;;;;4.32;2.70;;;;;;;25.47;46.80;100603.66;5087346;28;20110;-69
2023/06/05 09:19:05;;;;;;;7.50;3.03;;;;;;;25.63;46.84;100617.66;5070267;28;20024;-70
2023/06/05 09:21:32;;;;;;;5.32;2.90;;;;;;;25.66;45.88;100611.72;5078761;28;20470;-70
2023/06/05 09:24:18;;;;;;;4.50;2.60;;;;;;;25.71;45.24;100602.81;5087301;28;20020;-70
2023/06/05 09:26:46;;;;;;;6.07;2.60;;;;;;;25.85;44.26;100607.94;5081967;28;20021;-69
2023/06/05 09:29:12;;;;;;;3.35;2.58;;;;;;;25.70;41.97;100584.66;5071305;28;20131;-70
2023/06/05 09:31:44;;;;;;;3.30;2.35;;;;;;;25.83;40.31;100604.56;5079328;28;20031;-70
2023/06/05 09:34:09;;;;;;;7.50;3.03;;;;;;;25.82;40.06;100596.56;5071502;28;20086;-70
2023/06/05 09:36:45;;;;;;;5.32;2.88;;;;;;;25.85;39.54;100609.84;5072377;28;20028;-78
2023/06/05 09:39:18;;;;;;;4.13;2.67;;;;;;;25.98;40.01;100613.34;5074945;28;20475;-77
2023/06/05 09:41:46;;;;;;;4.07;2.58;;;;;;;26.06;40.15;100606.72;5072775;28;20028;-78
2023/06/05 09:44:11;;;;;;;5.00;3.15;;;;;;;26.10;39.97;100603.28;5071947;28;20033;-78
2023/06/05 09:46:57;;;;;;;5.53;2.38;;;;;;;26.19;39.62;100604.66;5073992;28;20047;-78
2023/06/05 09:49:26;;;;;;;4.25;2.92;;;;;;;26.24;39.07;100603.97;5071283;28;20043;-78
2023/06/05 09:51:51;;;;;;;7.45;2.90;;;;;;;26.24;39.08;100596.56;5070808;28;20031;-77
2023/06/05 09:54:19;;;;;;;10.07;3.17;;;;;;;26.18;39.07;100580.97;5064997;28;20028;-70
2023/06/05 09:56:50;;;;;;;4.40;2.78;;;;;;;26.25;39.43;100595.47;5069791;28;20043;-70
2023/06/05 09:59:22;;;;;;;5.57;2.75;;;;;;;26.27;39.83;100593.34;5076921;28;20020;-70
2023/06/05 10:01:52;;;;;;;6.35;2.78;;;;;;;26.40;39.50;100586.84;5085562;28;20029;-70
2023/06/05 10:04:26;;;;;;;6.97;2.95;;;;;;;26.47;39.50;100593.94;5081728;28;20051;-70
2023/06/05 10:06:57;;;;;;;5.00;3.15;;;;;;;26.48;39.25;100592.03;5069462;28;20022;-70
2023/06/05 10:09:24;;;;;;;5.30;3.35;;;;;;;26.42;39.32;100568.19;5077177;28;20060;-70
2023/06/05 10:11:51;;;;;;;5.80;2.92;;;;;;;26.65;38.93;100587.59;5075949;28;20091;-70
2023/06/05 10:14:19;;;;;;;10.00;2.60;;;;;;;26.52;38.30;100587.75;5077777;28;20076;-70
2023/06/05 10:16:49;;;;;;;3.50;2.55;;;;;;;26.43;37.43;100589.13;5083456;28;20054;-70
2023/06/05 10:19:16;;;;;;;5.50;3.05;;;;;;;26.27;38.13;100559.50;5059144;28;20033;-70
2023/06/05 10:21:43;;;;;;;3.90;2.50;;;;;;;26.37;38.77;100577.16;5077136;28;20498;-70
2023/06/05 10:24:34;;;;;;;6.35;3.00;;;;;;;26.35;39.60;100567.44;5066997;28;20485;-70
2023/06/05 10:27:15;;;;;;;3.33;2.92;;;;;;;26.44;40.44;100577.91;5081093;28;20036;-70
2023/06/05 10:30:12;;;;;;;4.03;2.75;;;;;;;26.52;40.80;100588.59;5078463;28;20437;-70
2023/06/05 10:32:46;;;;;;;4.88;2.63;;;;;;;26.52;40.93;100565.75;5084398;28;20116;-70
2023/06/05 10:35:12;;;;;;;;;;;;;;;26.58;41.17;100567.56;5066894;28;20020;-70
2023/06/05 10:37:59;;;;;;;4.88;2.70;;;;;;;26.45;41.26;100542.97;5065235;28;19960;-70
2023/06/05 10:40:25;;;;;;;5.40;2.58;;;;;;;26.53;41.56;100554.50;5065914;28;20039;-70
2023/06/05 10:42:51;;;;;;;5.32;2.97;;;;;;;26.62;41.51;100568.81;5068939;28;20444;-70
2023/06/05 10:45:31;;;;;;;9.50;3.67;;;;;;;26.68;41.65;100567.88;5087279;28;20067;-70
2023/06/05 10:47:56;;;;;;;5.95;2.75;;;;;;;26.61;40.66;100556.13;5065620;28;20060;-77
2023/06/05 10:50:26;;;;;;;5.95;2.85;;;;;;;26.67;40.37;100562.59;5072448;28;20058;-78
2023/06/05 10:52:53;;;;;;;8.52;2.72;;;;;;;26.54;40.71;100560.84;5073026;28;20460;-77
2023/06/05 10:55:20;;;;;;;5.63;2.70;;;;;;;26.49;40.97;100541.44;5079725;28;20040;-78
2023/06/05 10:58:02;;;;;;;4.28;2.80;;;;;;;26.47;41.44;100549.06;5069019;28;20033;-77
2023/06/05 11:00:29;;;;;;;4.22;2.72;;;;;;;26.50;40.46;100543.97;5079598;28;20104;-77
2023/06/05 11:02:54;;;;;;;3.53;2.75;;;;;;;26.52;40.26;100532.72;5080605;28;20032;-78
2023/06/05 11:05:20;;;;;;;3.75;2.30;;;;;;;26.68;40.11;100542.25;5086530;28;20082;-78
2023/06/05 11:07:46;;;;;;;4.53;3.00;;;;;;;26.61;39.85;100531.38;5089269;28;20034;-78
2023/06/05 11:10:22;;;;;;;4.32;2.70;;;;;;;26.66;39.45;100538.91;5081772;28;20036;-78
2023/06/05 11:12:47;;;;;;;4.07;2.90;;;;;;;26.73;38.79;100550.66;5083252;28;20085;-78
2023/06/05 11:15:22;;;;;;;4.32;2.88;;;;;;;26.79;37.61;100538.72;5076005;28;20491;-70
2023/06/05 11:17:48;;;;;;;4.65;2.47;;;;;;;26.83;37.53;100542.69;5065631;28;20028;-71
2023/06/05 11:20:22;;;;;;;2.83;2.38;;;;;;;26.85;37.71;100529.53;5069900;28;20383;-71
2023/06/05 11:22:54;;;;;;;5.55;2.90;;;;;;;26.87;37.53;100533.72;5067901;28;20032;-71
2023/06/05 11:25:26;;;;;;;4.47;2.80;;;;;;;26.89;37.21;100536.25;5066771;28;20556;-71